Waterville, ME (04901)

1:48 AM EST on March 06, 2015 (GMT -0500)
Mayflower Hill | Change Station
CLOSE
Current Station
Personal Weather Station
Location: Waterville, ME
Elevation: 292 ft
Nearby Weather Stations

Elev 292 ft 44.56 °N, 69.66 °W | Updated 3 minutes ago

Clear
Clear
6.3 °F
Feels Like 6 °F
N
1.1
Wind Variable Wind from North
Gusts 3.4 mph

Today
High -- | Low -- °F
--% Chance of Precip.
Yesterday
High -- | Low -- °F
Precip. -- in
6:07 AM 5:32 PM
Full, 100% visible
Pressure 30.30 in
Visibility -9999.0 miles
Clouds Clear
Windchill 6 °F
Dew Point -11 °F
Humidity 45%
Rainfall in
Snow Depth Not available.
UV 0 out of 12
Pollen .30 out of 12
Air Quality Not available.
Flu Activity Not available.
METAR KWVL 060635Z 00000KT CLR M18/M28 A3030 RMK AO1

More Conditions Fewer Conditions

Pressure 30.30 in
Visibility -9999.0 miles
Clouds Clear
Windchill 6 °F
Dew Point -11 °F
Humidity 45%
Rainfall in
Snow Depth Not available.
UV 0 out of 12
Pollen .30 out of 12
Air Quality Not available.
Flu Activity Not available.
METAR KWVL 060635Z 00000KT CLR M18/M28 A3030 RMK AO1

More Conditions Fewer Conditions

10-Day Weather Forecast

Almanac

Astronomy

Mar. 06, 2015 Rise Set
Actual Time
Civil Twilight
Nautical Twilight
Astronomical Twilight
Moon
Length of Visible Light
Length of Day
Tomorrow will be .
, % of the Moon is Illuminated

Today's Extremes

State Highs State Lows

Community

WunderPhotos

Upload Photos

1,803,197 photos uploaded!

WunderBlogs® & News

Nearby

Air Quality

  Air Quality AQ Index Pollutant
Not available.

Snow Depth

Station Depth Elevation

Earthquake Activity

City Distance Mag. Time & Date
Minimum magnitude displayed is 2.5.

Coastal Water Temperatures

Place Temperature

Nearby Weather Stations